Terminal Aerodrome Forecast
Issued by NWS

Home | Current Version | Previous Version | Text Only | Print | Product List | Glossary On
Versions: 1 2 3 4 5 6 7 8 9 10 11 12 13 14 15 16 17 18 19 20 21 22 23 24 25 26 27 28 29 30 31 32
000
FTUS45 KSLC 292336
TAFENV
TAF
KENV 292336Z 3000/3024 21012G20KT P6SM VCSH SCT080 BKN120
     FM300100 23011G17KT P6SM FEW080 SCT120
     FM300600 31013KT P6SM FEW100 SCT150
     FM301600 33007KT P6SM FEW100
      AMD LTD TO CLD VIS AND WIND=

USA.gov is the U.S. government's official web portal to all federal, state and local government web resources and services.